sensor_id;sensor_type;location;lat;lon;timestamp;temperature;humidity
16513;DHT22;8369;48.030;11.598;2022-07-10T00:01:17;18.80;96.70
16513;DHT22;8369;48.030;11.598;2022-07-10T00:03:43;18.80;96.30
16513;DHT22;8369;48.030;11.598;2022-07-10T00:06:12;18.80;96.90
16513;DHT22;8369;48.030;11.598;2022-07-10T00:08:38;18.70;97.80
16513;DHT22;8369;48.030;11.598;2022-07-10T00:11:04;18.70;97.60
16513;DHT22;8369;48.030;11.598;2022-07-10T00:13:30;18.70;97.10
16513;DHT22;8369;48.030;11.598;2022-07-10T00:15:56;18.70;96.90
16513;DHT22;8369;48.030;11.598;2022-07-10T00:18:22;18.70;97.90
16513;DHT22;8369;48.030;11.598;2022-07-10T00:20:48;18.70;97.80
16513;DHT22;8369;48.030;11.598;2022-07-10T00:23:14;18.70;98.30
16513;DHT22;8369;48.030;11.598;2022-07-10T00:25:40;18.70;98.10
16513;DHT22;8369;48.030;11.598;2022-07-10T00:28:06;18.70;98.20
16513;DHT22;8369;48.030;11.598;2022-07-10T00:30:32;18.70;98.00
16513;DHT22;8369;48.030;11.598;2022-07-10T00:32:58;18.60;97.30
16513;DHT22;8369;48.030;11.598;2022-07-10T00:35:25;18.70;97.20
16513;DHT22;8369;48.030;11.598;2022-07-10T00:37:51;18.70;97.00
16513;DHT22;8369;48.030;11.598;2022-07-10T00:40:17;18.70;97.00
16513;DHT22;8369;48.030;11.598;2022-07-10T00:42:43;18.60;97.50
16513;DHT22;8369;48.030;11.598;2022-07-10T00:45:09;18.60;97.50
16513;DHT22;8369;48.030;11.598;2022-07-10T00:47:36;18.60;97.50
16513;DHT22;8369;48.030;11.598;2022-07-10T00:50:02;18.70;97.40
16513;DHT22;8369;48.030;11.598;2022-07-10T00:52:29;18.70;98.20
16513;DHT22;8369;48.030;11.598;2022-07-10T00:54:56;18.60;98.30
16513;DHT22;8369;48.030;11.598;2022-07-10T00:57:23;18.70;98.50
16513;DHT22;8369;48.030;11.598;2022-07-10T00:59:49;18.60;99.90
16513;DHT22;8369;48.030;11.598;2022-07-10T01:02:16;18.60;99.90
16513;DHT22;8369;48.030;11.598;2022-07-10T01:04:42;18.60;99.90
16513;DHT22;8369;48.030;11.598;2022-07-10T01:10:50;18.50;99.90
16513;DHT22;8369;48.030;11.598;2022-07-10T01:13:16;18.40;99.90
16513;DHT22;8369;48.030;11.598;2022-07-10T01:15:45;18.30;99.90
16513;DHT22;8369;48.030;11.598;2022-07-10T01:18:11;18.20;99.90
16513;DHT22;8369;48.030;11.598;2022-07-10T01:20:39;18.20;99.90
16513;DHT22;8369;48.030;11.598;2022-07-10T01:23:05;18.10;99.90
16513;DHT22;8369;48.030;11.598;2022-07-10T01:25:31;18.10;99.90
16513;DHT22;8369;48.030;11.598;2022-07-10T01:27:58;18.00;99.90
16513;DHT22;8369;48.030;11.598;2022-07-10T01:30:25;18.00;99.90
16513;DHT22;8369;48.030;11.598;2022-07-10T01:32:51;17.90;99.90
16513;DHT22;8369;48.030;11.598;2022-07-10T01:35:18;17.90;99.90
16513;DHT22;8369;48.030;11.598;2022-07-10T01:37:44;17.80;99.90
16513;DHT22;8369;48.030;11.598;2022-07-10T01:40:11;17.80;99.90
16513;DHT22;8369;48.030;11.598;2022-07-10T01:42:38;17.80;99.90
16513;DHT22;8369;48.030;11.598;2022-07-10T01:45:08;17.70;99.90
16513;DHT22;8369;48.030;11.598;2022-07-10T01:47:38;17.70;99.90
16513;DHT22;8369;48.030;11.598;2022-07-10T01:50:05;17.70;99.90
16513;DHT22;8369;48.030;11.598;2022-07-10T01:52:32;17.70;99.90
16513;DHT22;8369;48.030;11.598;2022-07-10T01:54:58;17.70;99.90
16513;DHT22;8369;48.030;11.598;2022-07-10T01:57:24;17.60;99.90
16513;DHT22;8369;48.030;11.598;2022-07-10T01:59:50;17.60;99.90
16513;DHT22;8369;48.030;11.598;2022-07-10T02:02:16;17.50;99.90
16513;DHT22;8369;48.030;11.598;2022-07-10T02:04:42;17.50;99.90
16513;DHT22;8369;48.030;11.598;2022-07-10T02:07:08;17.40;99.90
16513;DHT22;8369;48.030;11.598;2022-07-10T02:09:35;17.40;99.90
16513;DHT22;8369;48.030;11.598;2022-07-10T02:12:01;17.30;99.90
16513;DHT22;8369;48.030;11.598;2022-07-10T02:14:28;17.30;99.90
16513;DHT22;8369;48.030;11.598;2022-07-10T02:16:54;17.30;99.90
16513;DHT22;8369;48.030;11.598;2022-07-10T02:19:21;17.20;99.90
16513;DHT22;8369;48.030;11.598;2022-07-10T02:21:47;17.20;99.90
16513;DHT22;8369;48.030;11.598;2022-07-10T02:24:14;17.20;99.90
16513;DHT22;8369;48.030;11.598;2022-07-10T02:26:40;17.20;99.90
16513;DHT22;8369;48.030;11.598;2022-07-10T02:29:06;17.20;99.90
16513;DHT22;8369;48.030;11.598;2022-07-10T02:31:32;17.20;99.90
16513;DHT22;8369;48.030;11.598;2022-07-10T02:34:01;17.10;99.90
16513;DHT22;8369;48.030;11.598;2022-07-10T02:36:27;17.10;99.90
16513;DHT22;8369;48.030;11.598;2022-07-10T02:38:54;17.10;99.90
16513;DHT22;8369;48.030;11.598;2022-07-10T02:41:21;17.10;99.90
16513;DHT22;8369;48.030;11.598;2022-07-10T02:43:48;17.10;99.90
16513;DHT22;8369;48.030;11.598;2022-07-10T02:46:14;17.10;99.90
16513;DHT22;8369;48.030;11.598;2022-07-10T02:48:40;17.10;99.90
16513;DHT22;8369;48.030;11.598;2022-07-10T02:51:07;17.10;99.90
16513;DHT22;8369;48.030;11.598;2022-07-10T02:53:33;17.10;99.90
16513;DHT22;8369;48.030;11.598;2022-07-10T02:55:59;17.10;99.90
16513;DHT22;8369;48.030;11.598;2022-07-10T02:58:25;17.10;99.90
16513;DHT22;8369;48.030;11.598;2022-07-10T03:00:52;17.10;99.90
16513;DHT22;8369;48.030;11.598;2022-07-10T03:03:18;17.10;99.90
16513;DHT22;8369;48.030;11.598;2022-07-10T03:05:45;17.10;99.90
16513;DHT22;8369;48.030;11.598;2022-07-10T03:08:12;17.20;99.90
16513;DHT22;8369;48.030;11.598;2022-07-10T03:10:38;17.20;99.90
16513;DHT22;8369;48.030;11.598;2022-07-10T03:13:05;17.20;99.90
16513;DHT22;8369;48.030;11.598;2022-07-10T03:15:31;17.20;99.90
16513;DHT22;8369;48.030;11.598;2022-07-10T03:17:58;17.20;99.90
16513;DHT22;8369;48.030;11.598;2022-07-10T03:20:24;17.20;99.90
16513;DHT22;8369;48.030;11.598;2022-07-10T03:22:51;17.20;99.90
16513;DHT22;8369;48.030;11.598;2022-07-10T03:25:17;17.10;99.90
16513;DHT22;8369;48.030;11.598;2022-07-10T03:27:44;17.10;99.90
16513;DHT22;8369;48.030;11.598;2022-07-10T03:30:10;17.00;99.90
16513;DHT22;8369;48.030;11.598;2022-07-10T03:32:36;17.00;99.90
16513;DHT22;8369;48.030;11.598;2022-07-10T03:35:02;17.00;99.90
16513;DHT22;8369;48.030;11.598;2022-07-10T03:37:38;17.00;99.90
16513;DHT22;8369;48.030;11.598;2022-07-10T03:40:06;17.00;99.90
16513;DHT22;8369;48.030;11.598;2022-07-10T03:42:32;17.00;99.90
16513;DHT22;8369;48.030;11.598;2022-07-10T03:45:00;17.00;99.90
16513;DHT22;8369;48.030;11.598;2022-07-10T03:47:26;17.00;99.90
16513;DHT22;8369;48.030;11.598;2022-07-10T03:49:52;17.00;99.90
16513;DHT22;8369;48.030;11.598;2022-07-10T03:52:18;17.00;99.90
16513;DHT22;8369;48.030;11.598;2022-07-10T03:54:47;17.00;99.90
16513;DHT22;8369;48.030;11.598;2022-07-10T03:57:14;17.00;99.90
16513;DHT22;8369;48.030;11.598;2022-07-10T03:59:59;17.00;99.90
16513;DHT22;8369;48.030;11.598;2022-07-10T04:02:25;17.00;99.90
16513;DHT22;8369;48.030;11.598;2022-07-10T04:04:51;17.00;99.90
16513;DHT22;8369;48.030;11.598;2022-07-10T04:07:17;17.00;99.90
16513;DHT22;8369;48.030;11.598;2022-07-10T04:09:44;17.00;99.90
16513;DHT22;8369;48.030;11.598;2022-07-10T04:12:11;17.00;99.90
16513;DHT22;8369;48.030;11.598;2022-07-10T04:14:38;17.00;99.90
16513;DHT22;8369;48.030;11.598;2022-07-10T04:17:04;16.90;99.90
16513;DHT22;8369;48.030;11.598;2022-07-10T04:19:32;17.00;99.90
16513;DHT22;8369;48.030;11.598;2022-07-10T04:21:59;17.00;99.90
16513;DHT22;8369;48.030;11.598;2022-07-10T04:24:26;17.00;99.90
16513;DHT22;8369;48.030;11.598;2022-07-10T04:26:53;17.00;99.90
16513;DHT22;8369;48.030;11.598;2022-07-10T04:29:20;17.00;99.90
16513;DHT22;8369;48.030;11.598;2022-07-10T04:31:46;17.00;99.90
16513;DHT22;8369;48.030;11.598;2022-07-10T04:34:14;17.00;99.90
16513;DHT22;8369;48.030;11.598;2022-07-10T04:36:41;17.00;99.90
16513;DHT22;8369;48.030;11.598;2022-07-10T04:39:07;17.00;99.90
16513;DHT22;8369;48.030;11.598;2022-07-10T04:41:34;17.00;99.90
16513;DHT22;8369;48.030;11.598;2022-07-10T04:44:00;17.00;99.90
16513;DHT22;8369;48.030;11.598;2022-07-10T04:46:27;17.10;99.90
16513;DHT22;8369;48.030;11.598;2022-07-10T04:48:53;17.00;99.90
16513;DHT22;8369;48.030;11.598;2022-07-10T04:51:20;17.00;99.90
16513;DHT22;8369;48.030;11.598;2022-07-10T04:53:48;17.10;99.90
16513;DHT22;8369;48.030;11.598;2022-07-10T04:56:15;17.00;99.90
16513;DHT22;8369;48.030;11.598;2022-07-10T04:58:42;17.00;99.90
16513;DHT22;8369;48.030;11.598;2022-07-10T05:01:08;17.00;99.90
16513;DHT22;8369;48.030;11.598;2022-07-10T05:03:34;17.00;99.90
16513;DHT22;8369;48.030;11.598;2022-07-10T05:06:01;17.00;99.90
16513;DHT22;8369;48.030;11.598;2022-07-10T05:08:27;16.90;99.90
16513;DHT22;8369;48.030;11.598;2022-07-10T05:10:56;16.90;99.90
16513;DHT22;8369;48.030;11.598;2022-07-10T05:13:22;17.00;99.90
16513;DHT22;8369;48.030;11.598;2022-07-10T05:15:48;17.00;99.90
16513;DHT22;8369;48.030;11.598;2022-07-10T05:18:15;17.00;99.90
16513;DHT22;8369;48.030;11.598;2022-07-10T05:20:41;17.10;99.90
16513;DHT22;8369;48.030;11.598;2022-07-10T05:23:10;17.00;99.90
16513;DHT22;8369;48.030;11.598;2022-07-10T05:25:37;17.00;99.90
16513;DHT22;8369;48.030;11.598;2022-07-10T05:28:04;17.10;99.90
16513;DHT22;8369;48.030;11.598;2022-07-10T05:30:31;17.10;99.90
16513;DHT22;8369;48.030;11.598;2022-07-10T05:32:56;17.00;99.90
16513;DHT22;8369;48.030;11.598;2022-07-10T05:35:22;17.00;99.90
16513;DHT22;8369;48.030;11.598;2022-07-10T05:37:48;17.00;99.90
16513;DHT22;8369;48.030;11.598;2022-07-10T05:40:14;17.10;99.90
16513;DHT22;8369;48.030;11.598;2022-07-10T05:42:40;17.10;99.90
16513;DHT22;8369;48.030;11.598;2022-07-10T05:45:06;17.10;99.90
16513;DHT22;8369;48.030;11.598;2022-07-10T05:47:33;17.10;99.90
16513;DHT22;8369;48.030;11.598;2022-07-10T05:49:59;17.10;99.90
16513;DHT22;8369;48.030;11.598;2022-07-10T05:52:25;17.00;99.90
16513;DHT22;8369;48.030;11.598;2022-07-10T05:54:51;17.00;99.90
16513;DHT22;8369;48.030;11.598;2022-07-10T05:57:17;17.00;99.90
16513;DHT22;8369;48.030;11.598;2022-07-10T05:59:43;17.10;99.90
16513;DHT22;8369;48.030;11.598;2022-07-10T06:02:09;17.20;99.90
16513;DHT22;8369;48.030;11.598;2022-07-10T06:04:36;17.20;99.90
16513;DHT22;8369;48.030;11.598;2022-07-10T06:07:02;17.20;99.90
16513;DHT22;8369;48.030;11.598;2022-07-10T06:09:30;17.20;99.90
16513;DHT22;8369;48.030;11.598;2022-07-10T06:11:55;17.30;99.90
16513;DHT22;8369;48.030;11.598;2022-07-10T06:14:21;17.20;99.90
16513;DHT22;8369;48.030;11.598;2022-07-10T06:16:47;17.30;99.90
16513;DHT22;8369;48.030;11.598;2022-07-10T06:19:14;17.30;99.90
16513;DHT22;8369;48.030;11.598;2022-07-10T06:21:43;17.30;99.90
16513;DHT22;8369;48.030;11.598;2022-07-10T06:24:09;17.40;99.90
16513;DHT22;8369;48.030;11.598;2022-07-10T06:26:35;17.50;99.90
16513;DHT22;8369;48.030;11.598;2022-07-10T06:29:01;17.50;99.90
16513;DHT22;8369;48.030;11.598;2022-07-10T06:31:26;17.50;99.90
16513;DHT22;8369;48.030;11.598;2022-07-10T06:33:52;17.60;99.90
16513;DHT22;8369;48.030;11.598;2022-07-10T06:36:18;17.60;99.90
16513;DHT22;8369;48.030;11.598;2022-07-10T06:38:44;17.70;99.90
16513;DHT22;8369;48.030;11.598;2022-07-10T06:41:10;17.70;99.90
16513;DHT22;8369;48.030;11.598;2022-07-10T06:43:35;17.80;99.90
16513;DHT22;8369;48.030;11.598;2022-07-10T06:46:02;17.80;99.90
16513;DHT22;8369;48.030;11.598;2022-07-10T06:48:28;17.70;99.90
16513;DHT22;8369;48.030;11.598;2022-07-10T06:50:54;17.80;99.90
16513;DHT22;8369;48.030;11.598;2022-07-10T06:53:20;17.80;99.90
16513;DHT22;8369;48.030;11.598;2022-07-10T06:55:51;17.90;99.90
16513;DHT22;8369;48.030;11.598;2022-07-10T06:58:17;17.90;99.90
16513;DHT22;8369;48.030;11.598;2022-07-10T07:00:43;18.00;99.90
16513;DHT22;8369;48.030;11.598;2022-07-10T07:03:09;18.00;99.90
16513;DHT22;8369;48.030;11.598;2022-07-10T07:05:35;17.90;99.90
16513;DHT22;8369;48.030;11.598;2022-07-10T07:08:01;18.00;99.90
16513;DHT22;8369;48.030;11.598;2022-07-10T07:10:26;17.90;99.90
16513;DHT22;8369;48.030;11.598;2022-07-10T07:12:52;17.90;99.90
16513;DHT22;8369;48.030;11.598;2022-07-10T07:15:18;17.90;99.90
16513;DHT22;8369;48.030;11.598;2022-07-10T07:17:46;18.00;99.90
16513;DHT22;8369;48.030;11.598;2022-07-10T07:20:26;18.00;99.90
16513;DHT22;8369;48.030;11.598;2022-07-10T07:23:10;18.00;99.90
16513;DHT22;8369;48.030;11.598;2022-07-10T07:25:40;18.00;99.90
16513;DHT22;8369;48.030;11.598;2022-07-10T07:28:09;18.00;99.90
16513;DHT22;8369;48.030;11.598;2022-07-10T07:30:39;18.00;99.90
16513;DHT22;8369;48.030;11.598;2022-07-10T07:33:05;18.10;99.90
16513;DHT22;8369;48.030;11.598;2022-07-10T07:35:31;18.20;99.90
16513;DHT22;8369;48.030;11.598;2022-07-10T07:37:57;18.20;99.90
16513;DHT22;8369;48.030;11.598;2022-07-10T07:40:22;18.20;99.90
16513;DHT22;8369;48.030;11.598;2022-07-10T07:42:52;18.30;99.90
16513;DHT22;8369;48.030;11.598;2022-07-10T07:45:19;18.30;99.90
16513;DHT22;8369;48.030;11.598;2022-07-10T07:47:53;18.30;99.90
16513;DHT22;8369;48.030;11.598;2022-07-10T07:50:22;18.30;99.90
16513;DHT22;8369;48.030;11.598;2022-07-10T07:52:49;18.30;99.90
16513;DHT22;8369;48.030;11.598;2022-07-10T07:55:17;18.30;99.90
16513;DHT22;8369;48.030;11.598;2022-07-10T07:57:44;18.30;99.90
16513;DHT22;8369;48.030;11.598;2022-07-10T08:00:11;18.30;99.90
16513;DHT22;8369;48.030;11.598;2022-07-10T08:02:38;18.30;99.90
16513;DHT22;8369;48.030;11.598;2022-07-10T08:05:05;18.30;99.90
16513;DHT22;8369;48.030;11.598;2022-07-10T08:07:38;18.30;99.90
16513;DHT22;8369;48.030;11.598;2022-07-10T08:10:05;18.30;99.90
16513;DHT22;8369;48.030;11.598;2022-07-10T08:12:32;18.40;99.90
16513;DHT22;8369;48.030;11.598;2022-07-10T08:14:58;18.40;99.90
16513;DHT22;8369;48.030;11.598;2022-07-10T08:17:25;18.50;99.90
16513;DHT22;8369;48.030;11.598;2022-07-10T08:19:50;18.40;99.90
16513;DHT22;8369;48.030;11.598;2022-07-10T08:22:16;18.50;99.90
16513;DHT22;8369;48.030;11.598;2022-07-10T08:24:42;18.50;99.90
16513;DHT22;8369;48.030;11.598;2022-07-10T08:27:08;18.50;99.90
16513;DHT22;8369;48.030;11.598;2022-07-10T08:29:34;18.50;99.90
16513;DHT22;8369;48.030;11.598;2022-07-10T08:31:59;18.70;99.90
16513;DHT22;8369;48.030;11.598;2022-07-10T08:34:26;18.70;99.90
16513;DHT22;8369;48.030;11.598;2022-07-10T08:36:56;18.90;99.90
16513;DHT22;8369;48.030;11.598;2022-07-10T08:39:21;19.10;99.50
16513;DHT22;8369;48.030;11.598;2022-07-10T08:41:47;19.20;98.40
16513;DHT22;8369;48.030;11.598;2022-07-10T08:44:17;19.30;96.00
16513;DHT22;8369;48.030;11.598;2022-07-10T08:46:44;19.20;94.30
16513;DHT22;8369;48.030;11.598;2022-07-10T08:49:10;19.10;94.60
16513;DHT22;8369;48.030;11.598;2022-07-10T08:51:58;19.10;95.60
16513;DHT22;8369;48.030;11.598;2022-07-10T08:54:28;19.20;95.90
16513;DHT22;8369;48.030;11.598;2022-07-10T08:57:01;19.30;96.30
16513;DHT22;8369;48.030;11.598;2022-07-10T08:59:28;19.50;95.80
16513;DHT22;8369;48.030;11.598;2022-07-10T09:01:55;19.70;94.90
16513;DHT22;8369;48.030;11.598;2022-07-10T09:04:23;19.70;93.40
16513;DHT22;8369;48.030;11.598;2022-07-10T09:06:51;19.80;92.80
16513;DHT22;8369;48.030;11.598;2022-07-10T09:09:16;19.90;92.90
16513;DHT22;8369;48.030;11.598;2022-07-10T09:11:42;19.90;93.40
16513;DHT22;8369;48.030;11.598;2022-07-10T09:14:10;20.00;92.50
16513;DHT22;8369;48.030;11.598;2022-07-10T09:16:40;20.00;92.30
16513;DHT22;8369;48.030;11.598;2022-07-10T09:19:26;20.20;91.10
16513;DHT22;8369;48.030;11.598;2022-07-10T09:22:07;20.30;87.90
16513;DHT22;8369;48.030;11.598;2022-07-10T09:24:41;20.50;87.60
16513;DHT22;8369;48.030;11.598;2022-07-10T09:27:08;20.70;87.40
16513;DHT22;8369;48.030;11.598;2022-07-10T09:32:11;20.60;88.90
16513;DHT22;8369;48.030;11.598;2022-07-10T09:34:44;20.50;90.20
16513;DHT22;8369;48.030;11.598;2022-07-10T09:37:27;20.30;90.40
16513;DHT22;8369;48.030;11.598;2022-07-10T09:40:01;20.20;91.40
16513;DHT22;8369;48.030;11.598;2022-07-10T09:42:41;20.20;90.90
16513;DHT22;8369;48.030;11.598;2022-07-10T09:47:55;20.40;90.10
16513;DHT22;8369;48.030;11.598;2022-07-10T09:53:06;20.50;88.90
16513;DHT22;8369;48.030;11.598;2022-07-10T09:55:36;20.50;88.20
16513;DHT22;8369;48.030;11.598;2022-07-10T09:58:06;20.50;84.70
16513;DHT22;8369;48.030;11.598;2022-07-10T10:00:39;20.40;84.50
16513;DHT22;8369;48.030;11.598;2022-07-10T10:03:11;20.40;86.30
16513;DHT22;8369;48.030;11.598;2022-07-10T10:08:29;20.40;87.10
16513;DHT22;8369;48.030;11.598;2022-07-10T10:10:58;20.50;84.50
16513;DHT22;8369;48.030;11.598;2022-07-10T10:13:26;20.70;83.10
16513;DHT22;8369;48.030;11.598;2022-07-10T10:16:00;20.80;82.50
16513;DHT22;8369;48.030;11.598;2022-07-10T10:18:27;21.00;80.30
16513;DHT22;8369;48.030;11.598;2022-07-10T10:20:58;21.10;80.20
16513;DHT22;8369;48.030;11.598;2022-07-10T10:23:25;21.10;79.60
16513;DHT22;8369;48.030;11.598;2022-07-10T10:25:52;21.00;79.90
16513;DHT22;8369;48.030;11.598;2022-07-10T10:28:23;21.00;81.30
16513;DHT22;8369;48.030;11.598;2022-07-10T10:30:53;21.00;81.10
16513;DHT22;8369;48.030;11.598;2022-07-10T10:33:40;21.00;80.30
16513;DHT22;8369;48.030;11.598;2022-07-10T10:36:08;21.00;79.40
16513;DHT22;8369;48.030;11.598;2022-07-10T10:41:51;21.10;78.10
16513;DHT22;8369;48.030;11.598;2022-07-10T10:46:55;21.20;78.50
16513;DHT22;8369;48.030;11.598;2022-07-10T10:49:53;21.20;78.40
16513;DHT22;8369;48.030;11.598;2022-07-10T10:52:22;21.20;79.10
16513;DHT22;8369;48.030;11.598;2022-07-10T11:00:14;21.50;79.10
16513;DHT22;8369;48.030;11.598;2022-07-10T11:02:41;21.80;77.90
16513;DHT22;8369;48.030;11.598;2022-07-10T11:07:55;22.20;77.90
16513;DHT22;8369;48.030;11.598;2022-07-10T11:10:31;22.30;77.00
16513;DHT22;8369;48.030;11.598;2022-07-10T11:15:29;22.10;75.90
16513;DHT22;8369;48.030;11.598;2022-07-10T11:17:56;22.00;74.40
16513;DHT22;8369;48.030;11.598;2022-07-10T11:20:23;21.90;75.30
16513;DHT22;8369;48.030;11.598;2022-07-10T11:28:41;21.80;77.10
16513;DHT22;8369;48.030;11.598;2022-07-10T11:31:07;21.80;76.20
16513;DHT22;8369;48.030;11.598;2022-07-10T11:33:45;21.80;74.90
16513;DHT22;8369;48.030;11.598;2022-07-10T11:36:17;21.70;76.50
16513;DHT22;8369;48.030;11.598;2022-07-10T11:38:45;21.60;76.40
16513;DHT22;8369;48.030;11.598;2022-07-10T11:41:19;21.60;77.10
16513;DHT22;8369;48.030;11.598;2022-07-10T11:46:17;21.70;75.80
16513;DHT22;8369;48.030;11.598;2022-07-10T11:48:44;21.70;74.70
16513;DHT22;8369;48.030;11.598;2022-07-10T11:51:23;21.80;74.10
16513;DHT22;8369;48.030;11.598;2022-07-10T11:54:13;21.80;74.60
16513;DHT22;8369;48.030;11.598;2022-07-10T11:56:46;21.70;74.60
16513;DHT22;8369;48.030;11.598;2022-07-10T11:59:13;21.50;75.50
16513;DHT22;8369;48.030;11.598;2022-07-10T12:01:51;21.50;76.40
16513;DHT22;8369;48.030;11.598;2022-07-10T12:04:21;21.40;77.40
16513;DHT22;8369;48.030;11.598;2022-07-10T12:06:52;21.60;75.20
16513;DHT22;8369;48.030;11.598;2022-07-10T12:09:22;21.60;75.80
16513;DHT22;8369;48.030;11.598;2022-07-10T12:12:05;21.80;75.20
16513;DHT22;8369;48.030;11.598;2022-07-10T12:14:32;21.90;74.90
16513;DHT22;8369;48.030;11.598;2022-07-10T12:16:59;22.20;70.40
16513;DHT22;8369;48.030;11.598;2022-07-10T12:19:27;22.50;69.50
16513;DHT22;8369;48.030;11.598;2022-07-10T12:21:57;22.60;70.90
16513;DHT22;8369;48.030;11.598;2022-07-10T12:24:24;22.60;69.80
16513;DHT22;8369;48.030;11.598;2022-07-10T12:26:52;22.50;70.30
16513;DHT22;8369;48.030;11.598;2022-07-10T12:29:28;22.40;70.10
16513;DHT22;8369;48.030;11.598;2022-07-10T12:31:59;22.40;72.00
16513;DHT22;8369;48.030;11.598;2022-07-10T12:34:38;22.50;70.90
16513;DHT22;8369;48.030;11.598;2022-07-10T12:37:13;22.60;71.50
16513;DHT22;8369;48.030;11.598;2022-07-10T12:39:49;22.60;71.20
16513;DHT22;8369;48.030;11.598;2022-07-10T12:42:28;22.80;69.40
16513;DHT22;8369;48.030;11.598;2022-07-10T12:45:08;22.80;70.10
16513;DHT22;8369;48.030;11.598;2022-07-10T12:47:46;22.70;69.50
16513;DHT22;8369;48.030;11.598;2022-07-10T12:50:17;22.60;70.40
16513;DHT22;8369;48.030;11.598;2022-07-10T12:52:43;22.60;70.70
16513;DHT22;8369;48.030;11.598;2022-07-10T12:55:14;22.60;71.20
16513;DHT22;8369;48.030;11.598;2022-07-10T13:00:13;22.60;71.20
16513;DHT22;8369;48.030;11.598;2022-07-10T13:02:40;22.70;69.70
16513;DHT22;8369;48.030;11.598;2022-07-10T13:05:06;22.80;68.90
16513;DHT22;8369;48.030;11.598;2022-07-10T13:07:33;22.90;68.00
16513;DHT22;8369;48.030;11.598;2022-07-10T13:10:07;23.00;69.10
16513;DHT22;8369;48.030;11.598;2022-07-10T13:12:34;23.00;68.50
16513;DHT22;8369;48.030;11.598;2022-07-10T13:15:00;22.90;67.60
16513;DHT22;8369;48.030;11.598;2022-07-10T13:17:26;22.90;68.20
16513;DHT22;8369;48.030;11.598;2022-07-10T13:19:52;22.80;67.60
16513;DHT22;8369;48.030;11.598;2022-07-10T13:22:18;22.60;68.80
16513;DHT22;8369;48.030;11.598;2022-07-10T13:24:44;22.60;69.80
16513;DHT22;8369;48.030;11.598;2022-07-10T13:27:10;22.60;67.60
16513;DHT22;8369;48.030;11.598;2022-07-10T13:29:35;22.70;68.00
16513;DHT22;8369;48.030;11.598;2022-07-10T13:32:01;22.70;68.00
16513;DHT22;8369;48.030;11.598;2022-07-10T13:34:28;22.80;66.80
16513;DHT22;8369;48.030;11.598;2022-07-10T13:36:53;22.90;66.80
16513;DHT22;8369;48.030;11.598;2022-07-10T13:39:21;22.90;66.20
16513;DHT22;8369;48.030;11.598;2022-07-10T13:41:47;22.90;66.30
16513;DHT22;8369;48.030;11.598;2022-07-10T13:44:13;22.70;65.70
16513;DHT22;8369;48.030;11.598;2022-07-10T13:46:39;22.60;66.60
16513;DHT22;8369;48.030;11.598;2022-07-10T13:49:07;22.40;67.40
16513;DHT22;8369;48.030;11.598;2022-07-10T13:51:33;22.40;66.60
16513;DHT22;8369;48.030;11.598;2022-07-10T13:53:59;22.30;66.90
16513;DHT22;8369;48.030;11.598;2022-07-10T13:56:25;22.20;67.90
16513;DHT22;8369;48.030;11.598;2022-07-10T13:58:51;22.40;68.50
16513;DHT22;8369;48.030;11.598;2022-07-10T14:01:17;22.50;69.40
16513;DHT22;8369;48.030;11.598;2022-07-10T14:03:43;22.60;68.20
16513;DHT22;8369;48.030;11.598;2022-07-10T14:06:09;22.60;67.90
16513;DHT22;8369;48.030;11.598;2022-07-10T14:08:35;22.60;66.90
16513;DHT22;8369;48.030;11.598;2022-07-10T14:11:01;22.60;66.50
16513;DHT22;8369;48.030;11.598;2022-07-10T14:13:27;22.70;66.20
16513;DHT22;8369;48.030;11.598;2022-07-10T14:15:53;22.80;66.50
16513;DHT22;8369;48.030;11.598;2022-07-10T14:18:19;22.80;65.00
16513;DHT22;8369;48.030;11.598;2022-07-10T14:21:06;22.80;65.10
16513;DHT22;8369;48.030;11.598;2022-07-10T14:23:40;22.80;64.80
16513;DHT22;8369;48.030;11.598;2022-07-10T14:26:13;22.80;65.00
16513;DHT22;8369;48.030;11.598;2022-07-10T14:28:39;22.80;65.30
16513;DHT22;8369;48.030;11.598;2022-07-10T14:31:06;22.80;63.60
16513;DHT22;8369;48.030;11.598;2022-07-10T14:33:34;22.70;63.40
16513;DHT22;8369;48.030;11.598;2022-07-10T14:36:01;22.60;64.50
16513;DHT22;8369;48.030;11.598;2022-07-10T14:38:27;22.50;64.70
16513;DHT22;8369;48.030;11.598;2022-07-10T14:40:54;22.60;65.30
16513;DHT22;8369;48.030;11.598;2022-07-10T14:43:21;22.60;64.50
16513;DHT22;8369;48.030;11.598;2022-07-10T14:45:46;22.70;64.00
16513;DHT22;8369;48.030;11.598;2022-07-10T14:48:13;22.70;64.80
16513;DHT22;8369;48.030;11.598;2022-07-10T14:50:39;22.80;63.70
16513;DHT22;8369;48.030;11.598;2022-07-10T14:53:06;22.90;63.30
16513;DHT22;8369;48.030;11.598;2022-07-10T14:55:33;22.90;63.30
16513;DHT22;8369;48.030;11.598;2022-07-10T14:57:58;22.90;63.70
16513;DHT22;8369;48.030;11.598;2022-07-10T15:00:24;22.80;62.50
16513;DHT22;8369;48.030;11.598;2022-07-10T15:02:51;22.70;64.20
16513;DHT22;8369;48.030;11.598;2022-07-10T15:05:17;22.80;63.70
16513;DHT22;8369;48.030;11.598;2022-07-10T15:07:43;23.00;62.50
16513;DHT22;8369;48.030;11.598;2022-07-10T15:10:09;22.80;62.20
16513;DHT22;8369;48.030;11.598;2022-07-10T15:12:35;22.80;63.10
16513;DHT22;8369;48.030;11.598;2022-07-10T15:15:06;22.70;63.10
16513;DHT22;8369;48.030;11.598;2022-07-10T15:17:34;22.70;63.90
16513;DHT22;8369;48.030;11.598;2022-07-10T15:20:01;22.70;63.90
16513;DHT22;8369;48.030;11.598;2022-07-10T15:22:27;22.60;64.20
16513;DHT22;8369;48.030;11.598;2022-07-10T15:24:53;22.60;64.40
16513;DHT22;8369;48.030;11.598;2022-07-10T15:27:19;22.70;64.50
16513;DHT22;8369;48.030;11.598;2022-07-10T15:29:46;22.80;63.60
16513;DHT22;8369;48.030;11.598;2022-07-10T15:32:12;22.80;63.00
16513;DHT22;8369;48.030;11.598;2022-07-10T15:34:38;22.70;63.60
16513;DHT22;8369;48.030;11.598;2022-07-10T15:37:04;22.80;63.70
16513;DHT22;8369;48.030;11.598;2022-07-10T15:39:30;22.80;62.80
16513;DHT22;8369;48.030;11.598;2022-07-10T15:42:08;22.70;62.50
16513;DHT22;8369;48.030;11.598;2022-07-10T15:44:34;22.70;63.30
16513;DHT22;8369;48.030;11.598;2022-07-10T15:47:00;22.80;62.40
16513;DHT22;8369;48.030;11.598;2022-07-10T15:49:26;22.60;61.80
16513;DHT22;8369;48.030;11.598;2022-07-10T15:51:52;22.60;62.70
16513;DHT22;8369;48.030;11.598;2022-07-10T15:54:18;22.60;62.70
16513;DHT22;8369;48.030;11.598;2022-07-10T15:56:44;22.60;62.50
16513;DHT22;8369;48.030;11.598;2022-07-10T15:59:10;22.60;62.80
16513;DHT22;8369;48.030;11.598;2022-07-10T16:01:40;22.60;63.00
16513;DHT22;8369;48.030;11.598;2022-07-10T16:04:06;22.60;62.80
16513;DHT22;8369;48.030;11.598;2022-07-10T16:06:32;22.80;61.50
16513;DHT22;8369;48.030;11.598;2022-07-10T16:09:01;22.70;62.10
16513;DHT22;8369;48.030;11.598;2022-07-10T16:11:28;22.70;61.80
16513;DHT22;8369;48.030;11.598;2022-07-10T16:13:55;22.70;60.50
16513;DHT22;8369;48.030;11.598;2022-07-10T16:16:22;22.50;60.20